sensor_id;sensor_type;location;lat;lon;timestamp;P1;durP1;ratioP1;P2;durP2;ratioP2
27383;SDS011;14851;51.166;4.760;2023-07-09T00:00:50;12.18;;;7.78;;
27383;SDS011;14851;51.166;4.760;2023-07-09T00:03:17;11.98;;;7.32;;
27383;SDS011;14851;51.166;4.760;2023-07-09T00:05:47;8.87;;;6.97;;
27383;SDS011;14851;51.166;4.760;2023-07-09T00:10:53;8.48;;;7.20;;
27383;SDS011;14851;51.166;4.760;2023-07-09T00:15:50;11.45;;;6.97;;
27383;SDS011;14851;51.166;4.760;2023-07-09T00:18:16;11.52;;;7.65;;
27383;SDS011;14851;51.166;4.760;2023-07-09T00:20:42;10.10;;;7.28;;
27383;SDS011;14851;51.166;4.760;2023-07-09T00:23:11;7.55;;;6.40;;
27383;SDS011;14851;51.166;4.760;2023-07-09T00:25:41;10.52;;;7.70;;
27383;SDS011;14851;51.166;4.760;2023-07-09T00:28:18;11.27;;;6.88;;
27383;SDS011;14851;51.166;4.760;2023-07-09T00:30:45;11.02;;;7.40;;
27383;SDS011;14851;51.166;4.760;2023-07-09T00:33:13;10.60;;;6.85;;
27383;SDS011;14851;51.166;4.760;2023-07-09T00:35:41;10.10;;;7.45;;
27383;SDS011;14851;51.166;4.760;2023-07-09T00:38:21;8.88;;;6.75;;
27383;SDS011;14851;51.166;4.760;2023-07-09T00:40:58;9.45;;;7.13;;
27383;SDS011;14851;51.166;4.760;2023-07-09T00:43:27;10.27;;;6.72;;
27383;SDS011;14851;51.166;4.760;2023-07-09T00:48:55;10.02;;;7.38;;
27383;SDS011;14851;51.166;4.760;2023-07-09T00:51:25;8.98;;;7.22;;
27383;SDS011;14851;51.166;4.760;2023-07-09T00:53:54;9.75;;;7.35;;
27383;SDS011;14851;51.166;4.760;2023-07-09T00:56:29;7.90;;;7.05;;
27383;SDS011;14851;51.166;4.760;2023-07-09T00:58:58;7.95;;;6.97;;
27383;SDS011;14851;51.166;4.760;2023-07-09T01:01:29;12.50;;;7.75;;
27383;SDS011;14851;51.166;4.760;2023-07-09T01:03:57;11.05;;;7.15;;
27383;SDS011;14851;51.166;4.760;2023-07-09T01:06:44;11.13;;;8.00;;
27383;SDS011;14851;51.166;4.760;2023-07-09T01:09:13;9.52;;;7.47;;
27383;SDS011;14851;51.166;4.760;2023-07-09T01:11:39;9.63;;;8.00;;
27383;SDS011;14851;51.166;4.760;2023-07-09T01:14:06;10.40;;;7.50;;
27383;SDS011;14851;51.166;4.760;2023-07-09T01:16:42;10.30;;;7.15;;
27383;SDS011;14851;51.166;4.760;2023-07-09T01:19:12;10.10;;;7.15;;
27383;SDS011;14851;51.166;4.760;2023-07-09T01:21:39;8.43;;;7.47;;
27383;SDS011;14851;51.166;4.760;2023-07-09T01:24:12;8.95;;;7.50;;
27383;SDS011;14851;51.166;4.760;2023-07-09T01:26:43;9.90;;;7.57;;
27383;SDS011;14851;51.166;4.760;2023-07-09T01:29:11;10.65;;;7.97;;
27383;SDS011;14851;51.166;4.760;2023-07-09T01:31:37;11.18;;;8.48;;
27383;SDS011;14851;51.166;4.760;2023-07-09T01:34:03;10.52;;;8.73;;
27383;SDS011;14851;51.166;4.760;2023-07-09T01:36:30;9.20;;;8.20;;
27383;SDS011;14851;51.166;4.760;2023-07-09T01:38:56;9.13;;;7.88;;
27383;SDS011;14851;51.166;4.760;2023-07-09T01:41:22;11.95;;;8.20;;
27383;SDS011;14851;51.166;4.760;2023-07-09T01:43:52;9.45;;;7.85;;
27383;SDS011;14851;51.166;4.760;2023-07-09T01:46:19;9.10;;;7.15;;
27383;SDS011;14851;51.166;4.760;2023-07-09T01:48:46;9.60;;;8.20;;
27383;SDS011;14851;51.166;4.760;2023-07-09T01:51:18;11.88;;;8.07;;
27383;SDS011;14851;51.166;4.760;2023-07-09T01:53:44;10.52;;;7.95;;
27383;SDS011;14851;51.166;4.760;2023-07-09T01:56:10;9.18;;;7.90;;
27383;SDS011;14851;51.166;4.760;2023-07-09T01:58:36;9.77;;;7.75;;
27383;SDS011;14851;51.166;4.760;2023-07-09T02:01:09;10.18;;;7.95;;
27383;SDS011;14851;51.166;4.760;2023-07-09T02:03:35;9.32;;;8.32;;
27383;SDS011;14851;51.166;4.760;2023-07-09T02:06:11;10.95;;;8.45;;
27383;SDS011;14851;51.166;4.760;2023-07-09T02:08:40;10.45;;;7.95;;
27383;SDS011;14851;51.166;4.760;2023-07-09T02:11:06;10.98;;;7.95;;
27383;SDS011;14851;51.166;4.760;2023-07-09T02:13:32;10.93;;;9.18;;
27383;SDS011;14851;51.166;4.760;2023-07-09T02:15:58;13.93;;;9.57;;
27383;SDS011;14851;51.166;4.760;2023-07-09T02:18:27;11.32;;;9.35;;
27383;SDS011;14851;51.166;4.760;2023-07-09T02:20:54;12.63;;;9.82;;
27383;SDS011;14851;51.166;4.760;2023-07-09T02:23:20;12.93;;;8.85;;
27383;SDS011;14851;51.166;4.760;2023-07-09T02:25:51;12.82;;;9.45;;
27383;SDS011;14851;51.166;4.760;2023-07-09T02:28:17;12.73;;;8.88;;
27383;SDS011;14851;51.166;4.760;2023-07-09T02:30:43;11.63;;;9.07;;
27383;SDS011;14851;51.166;4.760;2023-07-09T02:33:11;17.77;;;9.20;;
27383;SDS011;14851;51.166;4.760;2023-07-09T02:35:37;11.45;;;9.43;;
27383;SDS011;14851;51.166;4.760;2023-07-09T02:38:03;11.80;;;9.27;;
27383;SDS011;14851;51.166;4.760;2023-07-09T02:40:32;9.80;;;8.77;;
27383;SDS011;14851;51.166;4.760;2023-07-09T02:42:59;11.77;;;8.77;;
27383;SDS011;14851;51.166;4.760;2023-07-09T02:45:28;11.18;;;9.05;;
27383;SDS011;14851;51.166;4.760;2023-07-09T02:47:54;14.65;;;9.15;;
27383;SDS011;14851;51.166;4.760;2023-07-09T02:50:37;12.77;;;9.55;;
27383;SDS011;14851;51.166;4.760;2023-07-09T02:53:03;10.45;;;9.10;;
27383;SDS011;14851;51.166;4.760;2023-07-09T02:55:29;14.30;;;9.40;;
27383;SDS011;14851;51.166;4.760;2023-07-09T02:57:56;10.60;;;8.70;;
27383;SDS011;14851;51.166;4.760;2023-07-09T03:00:25;10.55;;;9.13;;
27383;SDS011;14851;51.166;4.760;2023-07-09T03:02:51;10.68;;;8.82;;
27383;SDS011;14851;51.166;4.760;2023-07-09T03:05:17;13.10;;;8.60;;
27383;SDS011;14851;51.166;4.760;2023-07-09T03:07:43;10.43;;;9.32;;
27383;SDS011;14851;51.166;4.760;2023-07-09T03:10:11;12.05;;;9.30;;
27383;SDS011;14851;51.166;4.760;2023-07-09T03:12:39;11.48;;;8.57;;
27383;SDS011;14851;51.166;4.760;2023-07-09T03:15:08;11.65;;;8.73;;
27383;SDS011;14851;51.166;4.760;2023-07-09T03:17:39;10.43;;;8.95;;
27383;SDS011;14851;51.166;4.760;2023-07-09T03:20:11;9.93;;;8.10;;
27383;SDS011;14851;51.166;4.760;2023-07-09T03:22:38;11.02;;;8.98;;
27383;SDS011;14851;51.166;4.760;2023-07-09T03:25:04;12.25;;;8.48;;
27383;SDS011;14851;51.166;4.760;2023-07-09T03:27:31;10.77;;;9.15;;
27383;SDS011;14851;51.166;4.760;2023-07-09T03:29:56;10.02;;;8.60;;
27383;SDS011;14851;51.166;4.760;2023-07-09T03:32:25;9.93;;;8.43;;
27383;SDS011;14851;51.166;4.760;2023-07-09T03:34:51;11.90;;;8.98;;
27383;SDS011;14851;51.166;4.760;2023-07-09T03:37:18;11.90;;;8.82;;
27383;SDS011;14851;51.166;4.760;2023-07-09T03:39:46;12.73;;;8.73;;
27383;SDS011;14851;51.166;4.760;2023-07-09T03:42:12;11.73;;;8.15;;
27383;SDS011;14851;51.166;4.760;2023-07-09T03:44:38;10.35;;;8.30;;
27383;SDS011;14851;51.166;4.760;2023-07-09T03:47:05;9.38;;;8.45;;
27383;SDS011;14851;51.166;4.760;2023-07-09T03:49:32;10.13;;;8.82;;
27383;SDS011;14851;51.166;4.760;2023-07-09T03:51:58;10.85;;;8.20;;
27383;SDS011;14851;51.166;4.760;2023-07-09T03:54:24;10.77;;;8.73;;
27383;SDS011;14851;51.166;4.760;2023-07-09T03:56:50;11.57;;;8.48;;
27383;SDS011;14851;51.166;4.760;2023-07-09T03:59:16;10.93;;;8.43;;
27383;SDS011;14851;51.166;4.760;2023-07-09T04:01:42;10.10;;;7.53;;
27383;SDS011;14851;51.166;4.760;2023-07-09T04:04:14;11.93;;;7.93;;
27383;SDS011;14851;51.166;4.760;2023-07-09T04:06:40;8.57;;;7.60;;
27383;SDS011;14851;51.166;4.760;2023-07-09T04:09:06;9.32;;;7.82;;
27383;SDS011;14851;51.166;4.760;2023-07-09T04:11:32;10.27;;;7.32;;
27383;SDS011;14851;51.166;4.760;2023-07-09T04:14:00;12.48;;;8.10;;
27383;SDS011;14851;51.166;4.760;2023-07-09T04:16:26;10.60;;;8.35;;
27383;SDS011;14851;51.166;4.760;2023-07-09T04:18:52;12.48;;;7.93;;
27383;SDS011;14851;51.166;4.760;2023-07-09T04:21:20;10.43;;;7.35;;
27383;SDS011;14851;51.166;4.760;2023-07-09T04:23:46;8.75;;;7.80;;
27383;SDS011;14851;51.166;4.760;2023-07-09T04:26:13;8.75;;;6.88;;
27383;SDS011;14851;51.166;4.760;2023-07-09T04:28:39;10.57;;;7.35;;
27383;SDS011;14851;51.166;4.760;2023-07-09T04:31:05;8.75;;;7.55;;
27383;SDS011;14851;51.166;4.760;2023-07-09T04:33:33;10.23;;;7.53;;
27383;SDS011;14851;51.166;4.760;2023-07-09T04:36:01;7.80;;;7.00;;
27383;SDS011;14851;51.166;4.760;2023-07-09T04:38:29;10.15;;;7.38;;
27383;SDS011;14851;51.166;4.760;2023-07-09T04:40:55;9.15;;;6.82;;
27383;SDS011;14851;51.166;4.760;2023-07-09T04:43:21;8.90;;;6.53;;
27383;SDS011;14851;51.166;4.760;2023-07-09T04:45:47;9.35;;;6.35;;
27383;SDS011;14851;51.166;4.760;2023-07-09T04:48:13;8.15;;;6.85;;
27383;SDS011;14851;51.166;4.760;2023-07-09T04:50:41;9.50;;;7.70;;
27383;SDS011;14851;51.166;4.760;2023-07-09T04:53:07;9.38;;;7.55;;
27383;SDS011;14851;51.166;4.760;2023-07-09T04:55:34;11.25;;;7.53;;
27383;SDS011;14851;51.166;4.760;2023-07-09T04:58:00;10.48;;;7.10;;
27383;SDS011;14851;51.166;4.760;2023-07-09T05:00:26;13.85;;;8.00;;
27383;SDS011;14851;51.166;4.760;2023-07-09T05:02:54;9.65;;;7.45;;
27383;SDS011;14851;51.166;4.760;2023-07-09T05:05:20;11.52;;;7.72;;
27383;SDS011;14851;51.166;4.760;2023-07-09T05:07:46;9.48;;;6.68;;
27383;SDS011;14851;51.166;4.760;2023-07-09T05:10:12;11.43;;;6.82;;
27383;SDS011;14851;51.166;4.760;2023-07-09T05:12:46;12.63;;;7.68;;
27383;SDS011;14851;51.166;4.760;2023-07-09T05:15:18;11.48;;;7.55;;
27383;SDS011;14851;51.166;4.760;2023-07-09T05:17:45;9.38;;;7.10;;
27383;SDS011;14851;51.166;4.760;2023-07-09T05:20:12;14.23;;;7.18;;
27383;SDS011;14851;51.166;4.760;2023-07-09T05:22:38;10.20;;;7.68;;
27383;SDS011;14851;51.166;4.760;2023-07-09T05:25:04;9.10;;;7.40;;
27383;SDS011;14851;51.166;4.760;2023-07-09T05:27:31;9.57;;;8.00;;
27383;SDS011;14851;51.166;4.760;2023-07-09T05:29:56;10.70;;;7.82;;
27383;SDS011;14851;51.166;4.760;2023-07-09T05:32:23;9.25;;;7.05;;
27383;SDS011;14851;51.166;4.760;2023-07-09T05:34:49;9.52;;;7.22;;
27383;SDS011;14851;51.166;4.760;2023-07-09T05:37:15;8.95;;;7.15;;
27383;SDS011;14851;51.166;4.760;2023-07-09T05:39:41;7.78;;;6.32;;
27383;SDS011;14851;51.166;4.760;2023-07-09T05:42:10;9.00;;;7.00;;
27383;SDS011;14851;51.166;4.760;2023-07-09T05:44:36;9.07;;;7.18;;
27383;SDS011;14851;51.166;4.760;2023-07-09T05:47:04;11.68;;;7.13;;
27383;SDS011;14851;51.166;4.760;2023-07-09T05:49:30;10.15;;;7.30;;
27383;SDS011;14851;51.166;4.760;2023-07-09T05:51:56;7.90;;;6.95;;
27383;SDS011;14851;51.166;4.760;2023-07-09T05:54:24;9.85;;;6.72;;
27383;SDS011;14851;51.166;4.760;2023-07-09T05:56:50;8.95;;;6.82;;
27383;SDS011;14851;51.166;4.760;2023-07-09T05:59:15;7.88;;;5.78;;
27383;SDS011;14851;51.166;4.760;2023-07-09T06:01:43;8.55;;;6.38;;
27383;SDS011;14851;51.166;4.760;2023-07-09T06:04:12;9.15;;;6.35;;
27383;SDS011;14851;51.166;4.760;2023-07-09T06:06:39;9.70;;;6.00;;
27383;SDS011;14851;51.166;4.760;2023-07-09T06:09:07;7.30;;;5.68;;
27383;SDS011;14851;51.166;4.760;2023-07-09T06:11:34;6.75;;;5.65;;
27383;SDS011;14851;51.166;4.760;2023-07-09T06:14:00;8.02;;;5.30;;
27383;SDS011;14851;51.166;4.760;2023-07-09T06:16:26;5.05;;;4.13;;
27383;SDS011;14851;51.166;4.760;2023-07-09T06:18:52;5.57;;;3.92;;
27383;SDS011;14851;51.166;4.760;2023-07-09T06:21:21;5.30;;;4.13;;
27383;SDS011;14851;51.166;4.760;2023-07-09T06:23:47;4.70;;;3.72;;
27383;SDS011;14851;51.166;4.760;2023-07-09T06:26:13;4.78;;;3.80;;
27383;SDS011;14851;51.166;4.760;2023-07-09T06:28:39;7.43;;;5.10;;
27383;SDS011;14851;51.166;4.760;2023-07-09T06:31:05;6.10;;;4.13;;
27383;SDS011;14851;51.166;4.760;2023-07-09T06:33:33;8.80;;;5.10;;
27383;SDS011;14851;51.166;4.760;2023-07-09T06:36:01;5.75;;;4.88;;
27383;SDS011;14851;51.166;4.760;2023-07-09T06:38:28;5.00;;;4.10;;
27383;SDS011;14851;51.166;4.760;2023-07-09T06:40:54;6.20;;;4.07;;
27383;SDS011;14851;51.166;4.760;2023-07-09T06:43:20;5.68;;;4.75;;
27383;SDS011;14851;51.166;4.760;2023-07-09T06:48:26;6.55;;;5.05;;
27383;SDS011;14851;51.166;4.760;2023-07-09T06:50:56;3.83;;;3.30;;
27383;SDS011;14851;51.166;4.760;2023-07-09T06:53:23;2.50;;;2.23;;
27383;SDS011;14851;51.166;4.760;2023-07-09T06:55:50;6.32;;;3.72;;
27383;SDS011;14851;51.166;4.760;2023-07-09T06:58:20;5.23;;;3.90;;
27383;SDS011;14851;51.166;4.760;2023-07-09T07:00:48;6.10;;;4.93;;
27383;SDS011;14851;51.166;4.760;2023-07-09T07:03:15;7.03;;;4.65;;
27383;SDS011;14851;51.166;4.760;2023-07-09T07:05:44;7.25;;;4.43;;
27383;SDS011;14851;51.166;4.760;2023-07-09T07:08:19;6.60;;;4.13;;
27383;SDS011;14851;51.166;4.760;2023-07-09T07:10:48;8.40;;;4.70;;
27383;SDS011;14851;51.166;4.760;2023-07-09T07:13:15;8.00;;;4.45;;
27383;SDS011;14851;51.166;4.760;2023-07-09T07:15:44;6.60;;;4.68;;
27383;SDS011;14851;51.166;4.760;2023-07-09T07:18:16;8.48;;;4.85;;
27383;SDS011;14851;51.166;4.760;2023-07-09T07:20:48;8.27;;;4.82;;
27383;SDS011;14851;51.166;4.760;2023-07-09T07:23:17;8.30;;;5.00;;
27383;SDS011;14851;51.166;4.760;2023-07-09T07:25:44;5.20;;;3.95;;
27383;SDS011;14851;51.166;4.760;2023-07-09T07:28:11;8.40;;;5.38;;
27383;SDS011;14851;51.166;4.760;2023-07-09T07:30:37;7.10;;;4.47;;
27383;SDS011;14851;51.166;4.760;2023-07-09T07:33:03;8.25;;;3.95;;
27383;SDS011;14851;51.166;4.760;2023-07-09T07:35:29;5.72;;;4.68;;
27383;SDS011;14851;51.166;4.760;2023-07-09T07:37:57;8.93;;;5.68;;
27383;SDS011;14851;51.166;4.760;2023-07-09T07:40:23;7.35;;;4.25;;
27383;SDS011;14851;51.166;4.760;2023-07-09T07:42:49;7.25;;;4.60;;
27383;SDS011;14851;51.166;4.760;2023-07-09T07:45:16;6.47;;;4.28;;
27383;SDS011;14851;51.166;4.760;2023-07-09T07:47:42;6.65;;;4.15;;
27383;SDS011;14851;51.166;4.760;2023-07-09T07:50:08;7.35;;;4.70;;
27383;SDS011;14851;51.166;4.760;2023-07-09T07:52:35;8.00;;;5.10;;
27383;SDS011;14851;51.166;4.760;2023-07-09T07:55:08;7.85;;;4.90;;
27383;SDS011;14851;51.166;4.760;2023-07-09T07:57:34;8.20;;;4.80;;
27383;SDS011;14851;51.166;4.760;2023-07-09T08:00:03;9.90;;;5.28;;
27383;SDS011;14851;51.166;4.760;2023-07-09T08:02:40;10.25;;;5.75;;
27383;SDS011;14851;51.166;4.760;2023-07-09T08:05:05;7.25;;;5.13;;
27383;SDS011;14851;51.166;4.760;2023-07-09T08:07:32;9.32;;;5.50;;
27383;SDS011;14851;51.166;4.760;2023-07-09T08:09:57;10.88;;;5.72;;
27383;SDS011;14851;51.166;4.760;2023-07-09T08:12:23;11.38;;;5.45;;
27383;SDS011;14851;51.166;4.760;2023-07-09T08:14:49;7.70;;;5.63;;
27383;SDS011;14851;51.166;4.760;2023-07-09T08:17:15;11.43;;;6.28;;
27383;SDS011;14851;51.166;4.760;2023-07-09T08:19:59;9.68;;;5.65;;
27383;SDS011;14851;51.166;4.760;2023-07-09T08:22:26;8.32;;;6.07;;
27383;SDS011;14851;51.166;4.760;2023-07-09T08:24:51;9.50;;;5.88;;
27383;SDS011;14851;51.166;4.760;2023-07-09T08:27:19;9.90;;;6.65;;
27383;SDS011;14851;51.166;4.760;2023-07-09T08:29:45;11.88;;;5.88;;
27383;SDS011;14851;51.166;4.760;2023-07-09T08:32:12;12.20;;;6.05;;
27383;SDS011;14851;51.166;4.760;2023-07-09T08:34:40;9.45;;;5.90;;
27383;SDS011;14851;51.166;4.760;2023-07-09T08:37:14;8.00;;;6.43;;
27383;SDS011;14851;51.166;4.760;2023-07-09T08:39:40;8.68;;;6.68;;
27383;SDS011;14851;51.166;4.760;2023-07-09T08:42:10;9.43;;;5.93;;
27383;SDS011;14851;51.166;4.760;2023-07-09T08:50:15;7.32;;;6.20;;
27383;SDS011;14851;51.166;4.760;2023-07-09T08:52:50;8.80;;;6.50;;
27383;SDS011;14851;51.166;4.760;2023-07-09T08:55:25;9.77;;;7.18;;
27383;SDS011;14851;51.166;4.760;2023-07-09T08:58:04;6.55;;;5.63;;
27383;SDS011;14851;51.166;4.760;2023-07-09T09:00:53;8.77;;;5.70;;
27383;SDS011;14851;51.166;4.760;2023-07-09T09:06:26;8.63;;;6.60;;
27383;SDS011;14851;51.166;4.760;2023-07-09T09:11:44;7.85;;;6.00;;
27383;SDS011;14851;51.166;4.760;2023-07-09T09:14:26;7.25;;;4.45;;
27383;SDS011;14851;51.166;4.760;2023-07-09T09:16:55;6.85;;;5.72;;
27383;SDS011;14851;51.166;4.760;2023-07-09T09:19:28;4.75;;;4.00;;
27383;SDS011;14851;51.166;4.760;2023-07-09T09:22:04;11.20;;;6.53;;
27383;SDS011;14851;51.166;4.760;2023-07-09T09:24:35;7.75;;;6.10;;
27383;SDS011;14851;51.166;4.760;2023-07-09T09:27:03;12.23;;;6.30;;
27383;SDS011;14851;51.166;4.760;2023-07-09T09:29:32;7.78;;;6.10;;
27383;SDS011;14851;51.166;4.760;2023-07-09T09:31:58;10.25;;;6.45;;
27383;SDS011;14851;51.166;4.760;2023-07-09T09:34:28;6.60;;;5.53;;
27383;SDS011;14851;51.166;4.760;2023-07-09T09:36:55;7.30;;;6.05;;
27383;SDS011;14851;51.166;4.760;2023-07-09T09:39:23;7.13;;;5.20;;
27383;SDS011;14851;51.166;4.760;2023-07-09T09:41:52;10.13;;;5.90;;
27383;SDS011;14851;51.166;4.760;2023-07-09T09:44:21;10.25;;;5.78;;
27383;SDS011;14851;51.166;4.760;2023-07-09T09:46:51;9.48;;;5.70;;
27383;SDS011;14851;51.166;4.760;2023-07-09T09:49:17;10.70;;;6.10;;
27383;SDS011;14851;51.166;4.760;2023-07-09T09:51:45;8.85;;;6.28;;
27383;SDS011;14851;51.166;4.760;2023-07-09T09:54:19;9.10;;;5.78;;
27383;SDS011;14851;51.166;4.760;2023-07-09T09:56:48;11.00;;;6.80;;
27383;SDS011;14851;51.166;4.760;2023-07-09T09:59:24;8.25;;;5.95;;
27383;SDS011;14851;51.166;4.760;2023-07-09T10:01:59;10.00;;;8.20;;
27383;SDS011;14851;51.166;4.760;2023-07-09T10:04:27;11.95;;;9.70;;
27383;SDS011;14851;51.166;4.760;2023-07-09T10:06:58;11.88;;;9.45;;
27383;SDS011;14851;51.166;4.760;2023-07-09T10:17:23;18.83;;;12.15;;
27383;SDS011;14851;51.166;4.760;2023-07-09T10:22:54;16.92;;;12.98;;
27383;SDS011;14851;51.166;4.760;2023-07-09T10:25:41;18.55;;;13.30;;
27383;SDS011;14851;51.166;4.760;2023-07-09T10:28:30;12.23;;;9.65;;
27383;SDS011;14851;51.166;4.760;2023-07-09T10:36:48;20.10;;;13.85;;
27383;SDS011;14851;51.166;4.760;2023-07-09T10:39:32;18.58;;;14.00;;
27383;SDS011;14851;51.166;4.760;2023-07-09T10:42:02;17.80;;;14.45;;
27383;SDS011;14851;51.166;4.760;2023-07-09T10:44:39;17.80;;;13.80;;
27383;SDS011;14851;51.166;4.760;2023-07-09T10:47:13;14.38;;;12.82;;
27383;SDS011;14851;51.166;4.760;2023-07-09T10:49:55;15.40;;;12.50;;
27383;SDS011;14851;51.166;4.760;2023-07-09T10:52:31;13.40;;;9.90;;
27383;SDS011;14851;51.166;4.760;2023-07-09T10:55:13;14.32;;;11.60;;
27383;SDS011;14851;51.166;4.760;2023-07-09T10:57:48;13.70;;;10.18;;
27383;SDS011;14851;51.166;4.760;2023-07-09T11:00:22;13.52;;;10.60;;
27383;SDS011;14851;51.166;4.760;2023-07-09T11:03:03;12.48;;;9.23;;
27383;SDS011;14851;51.166;4.760;2023-07-09T11:05:50;14.23;;;9.98;;
27383;SDS011;14851;51.166;4.760;2023-07-09T11:08:22;15.07;;;9.85;;
27383;SDS011;14851;51.166;4.760;2023-07-09T11:10:53;12.45;;;9.38;;
27383;SDS011;14851;51.166;4.760;2023-07-09T11:13:26;12.98;;;10.32;;
27383;SDS011;14851;51.166;4.760;2023-07-09T11:16:02;17.13;;;11.80;;
27383;SDS011;14851;51.166;4.760;2023-07-09T11:18:33;14.15;;;11.95;;
27383;SDS011;14851;51.166;4.760;2023-07-09T11:21:13;16.00;;;11.18;;
27383;SDS011;14851;51.166;4.760;2023-07-09T11:23:49;15.93;;;12.20;;
27383;SDS011;14851;51.166;4.760;2023-07-09T11:28:55;13.02;;;11.10;;
27383;SDS011;14851;51.166;4.760;2023-07-09T11:34:07;15.18;;;10.43;;
27383;SDS011;14851;51.166;4.760;2023-07-09T11:37:13;18.58;;;11.13;;
27383;SDS011;14851;51.166;4.760;2023-07-09T11:45:13;17.60;;;12.43;;
27383;SDS011;14851;51.166;4.760;2023-07-09T11:47:53;14.60;;;11.05;;
27383;SDS011;14851;51.166;4.760;2023-07-09T11:50:45;15.82;;;11.25;;
27383;SDS011;14851;51.166;4.760;2023-07-09T11:55:59;15.40;;;10.52;;
27383;SDS011;14851;51.166;4.760;2023-07-09T11:58:27;16.10;;;8.77;;
27383;SDS011;14851;51.166;4.760;2023-07-09T12:00:58;11.63;;;9.02;;
27383;SDS011;14851;51.166;4.760;2023-07-09T12:03:32;14.15;;;10.20;;
27383;SDS011;14851;51.166;4.760;2023-07-09T12:06:16;13.20;;;9.95;;
27383;SDS011;14851;51.166;4.760;2023-07-09T12:08:49;10.25;;;8.05;;
27383;SDS011;14851;51.166;4.760;2023-07-09T12:11:20;10.80;;;7.65;;
27383;SDS011;14851;51.166;4.760;2023-07-09T12:13:53;12.93;;;7.60;;
27383;SDS011;14851;51.166;4.760;2023-07-09T12:16:34;13.93;;;7.60;;
27383;SDS011;14851;51.166;4.760;2023-07-09T12:19:02;9.98;;;6.80;;
27383;SDS011;14851;51.166;4.760;2023-07-09T12:21:42;9.80;;;7.57;;
27383;SDS011;14851;51.166;4.760;2023-07-09T12:24:29;8.77;;;6.75;;
27383;SDS011;14851;51.166;4.760;2023-07-09T12:27:02;11.23;;;6.30;;
27383;SDS011;14851;51.166;4.760;2023-07-09T12:29:45;7.38;;;6.00;;
27383;SDS011;14851;51.166;4.760;2023-07-09T12:32:12;8.13;;;5.80;;
27383;SDS011;14851;51.166;4.760;2023-07-09T12:34:47;6.90;;;4.75;;
27383;SDS011;14851;51.166;4.760;2023-07-09T12:37:17;6.80;;;5.28;;
27383;SDS011;14851;51.166;4.760;2023-07-09T12:39:50;10.77;;;4.82;;
27383;SDS011;14851;51.166;4.760;2023-07-09T12:42:25;6.77;;;4.53;;
27383;SDS011;14851;51.166;4.760;2023-07-09T12:45:02;8.07;;;4.78;;
27383;SDS011;14851;51.166;4.760;2023-07-09T12:47:31;7.05;;;4.90;;
27383;SDS011;14851;51.166;4.760;2023-07-09T12:50:17;6.18;;;4.88;;
27383;SDS011;14851;51.166;4.760;2023-07-09T12:53:00;7.85;;;4.50;;
27383;SDS011;14851;51.166;4.760;2023-07-09T12:56:14;6.43;;;3.67;;
27383;SDS011;14851;51.166;4.760;2023-07-09T12:58:42;7.15;;;4.60;;
27383;SDS011;14851;51.166;4.760;2023-07-09T13:01:16;8.30;;;4.45;;
27383;SDS011;14851;51.166;4.760;2023-07-09T13:03:51;9.05;;;4.35;;
27383;SDS011;14851;51.166;4.760;2023-07-09T13:06:34;8.57;;;4.68;;
27383;SDS011;14851;51.166;4.760;2023-07-09T13:09:11;6.00;;;4.43;;
27383;SDS011;14851;51.166;4.760;2023-07-09T13:11:48;9.27;;;4.55;;
27383;SDS011;14851;51.166;4.760;2023-07-09T13:14:24;11.50;;;5.65;;
27383;SDS011;14851;51.166;4.760;2023-07-09T13:17:02;16.42;;;6.68;;
27383;SDS011;14851;51.166;4.760;2023-07-09T13:19:32;19.08;;;6.65;;
27383;SDS011;14851;51.166;4.760;2023-07-09T13:22:04;10.68;;;6.22;;
27383;SDS011;14851;51.166;4.760;2023-07-09T13:24:33;8.70;;;5.65;;
27383;SDS011;14851;51.166;4.760;2023-07-09T13:27:00;11.63;;;6.18;;
27383;SDS011;14851;51.166;4.760;2023-07-09T13:29:39;14.88;;;7.25;;
27383;SDS011;14851;51.166;4.760;2023-07-09T13:32:13;12.15;;;6.63;;
27383;SDS011;14851;51.166;4.760;2023-07-09T13:34:40;14.52;;;7.00;;
27383;SDS011;14851;51.166;4.760;2023-07-09T13:37:16;13.85;;;6.80;;
27383;SDS011;14851;51.166;4.760;2023-07-09T13:39:51;13.32;;;6.80;;
27383;SDS011;14851;51.166;4.760;2023-07-09T13:42:17;12.00;;;6.40;;
27383;SDS011;14851;51.166;4.760;2023-07-09T13:44:50;10.00;;;6.45;;
27383;SDS011;14851;51.166;4.760;2023-07-09T13:47:25;11.35;;;6.60;;
27383;SDS011;14851;51.166;4.760;2023-07-09T13:50:07;11.50;;;6.05;;
27383;SDS011;14851;51.166;4.760;2023-07-09T13:52:39;12.75;;;7.13;;
27383;SDS011;14851;51.166;4.760;2023-07-09T13:55:19;11.38;;;6.72;;
27383;SDS011;14851;51.166;4.760;2023-07-09T13:57:52;12.45;;;7.38;;
27383;SDS011;14851;51.166;4.760;2023-07-09T14:00:18;12.00;;;6.97;;
27383;SDS011;14851;51.166;4.760;2023-07-09T14:02:53;11.00;;;7.22;;
27383;SDS011;14851;51.166;4.760;2023-07-09T14:05:19;13.25;;;6.60;;
27383;SDS011;14851;51.166;4.760;2023-07-09T14:07:45;9.82;;;6.47;;
27383;SDS011;14851;51.166;4.760;2023-07-09T14:10:12;9.05;;;6.15;;
27383;SDS011;14851;51.166;4.760;2023-07-09T14:12:44;9.05;;;6.03;;
27383;SDS011;14851;51.166;4.760;2023-07-09T14:15:12;15.27;;;6.35;;
27383;SDS011;14851;51.166;4.760;2023-07-09T14:17:41;10.70;;;5.88;;
27383;SDS011;14851;51.166;4.760;2023-07-09T14:20:10;13.85;;;5.40;;
27383;SDS011;14851;51.166;4.760;2023-07-09T14:22:43;11.52;;;5.68;;
27383;SDS011;14851;51.166;4.760;2023-07-09T14:25:21;8.83;;;5.30;;
27383;SDS011;14851;51.166;4.760;2023-07-09T14:27:53;9.75;;;5.72;;
27383;SDS011;14851;51.166;4.760;2023-07-09T14:30:24;8.95;;;5.80;;
27383;SDS011;14851;51.166;4.760;2023-07-09T14:32:59;8.15;;;5.20;;
27383;SDS011;14851;51.166;4.760;2023-07-09T14:35:25;11.60;;;5.95;;
27383;SDS011;14851;51.166;4.760;2023-07-09T14:37:52;9.57;;;5.80;;
27383;SDS011;14851;51.166;4.760;2023-07-09T14:40:25;8.32;;;5.72;;
27383;SDS011;14851;51.166;4.760;2023-07-09T14:42:55;7.07;;;5.38;;
27383;SDS011;14851;51.166;4.760;2023-07-09T14:45:29;8.77;;;5.82;;
27383;SDS011;14851;51.166;4.760;2023-07-09T14:48:09;8.57;;;5.40;;
27383;SDS011;14851;51.166;4.760;2023-07-09T14:50:40;9.98;;;5.88;;
27383;SDS011;14851;51.166;4.760;2023-07-09T14:53:14;9.80;;;5.60;;
27383;SDS011;14851;51.166;4.760;2023-07-09T14:55:52;7.78;;;5.00;;
27383;SDS011;14851;51.166;4.760;2023-07-09T14:58:23;11.10;;;5.95;;
27383;SDS011;14851;51.166;4.760;2023-07-09T15:00:52;9.98;;;5.85;;
27383;SDS011;14851;51.166;4.760;2023-07-09T15:03:22;10.23;;;5.97;;
27383;SDS011;14851;51.166;4.760;2023-07-09T15:05:57;10.95;;;6.22;;
27383;SDS011;14851;51.166;4.760;2023-07-09T15:08:26;15.52;;;5.63;;
27383;SDS011;14851;51.166;4.760;2023-07-09T15:10:53;6.93;;;4.38;;
27383;SDS011;14851;51.166;4.760;2023-07-09T15:13:23;8.52;;;4.95;;
27383;SDS011;14851;51.166;4.760;2023-07-09T15:15:51;8.55;;;4.60;;
27383;SDS011;14851;51.166;4.760;2023-07-09T15:18:16;8.05;;;5.05;;
27383;SDS011;14851;51.166;4.760;2023-07-09T15:20:45;6.97;;;4.80;;
27383;SDS011;14851;51.166;4.760;2023-07-09T15:23:14;9.75;;;3.90;;
27383;SDS011;14851;51.166;4.760;2023-07-09T15:25:40;9.50;;;4.82;;
27383;SDS011;14851;51.166;4.760;2023-07-09T15:28:08;9.52;;;4.63;;
27383;SDS011;14851;51.166;4.760;2023-07-09T15:30:35;8.10;;;4.55;;
27383;SDS011;14851;51.166;4.760;2023-07-09T15:33:04;7.15;;;4.18;;
27383;SDS011;14851;51.166;4.760;2023-07-09T15:35:34;5.65;;;3.83;;
27383;SDS011;14851;51.166;4.760;2023-07-09T15:40:53;5.97;;;4.70;;
27383;SDS011;14851;51.166;4.760;2023-07-09T15:43:20;6.82;;;4.60;;
27383;SDS011;14851;51.166;4.760;2023-07-09T15:45:46;8.15;;;3.95;;
27383;SDS011;14851;51.166;4.760;2023-07-09T15:50:54;8.90;;;4.80;;
27383;SDS011;14851;51.166;4.760;2023-07-09T15:53:20;5.90;;;4.15;;
27383;SDS011;14851;51.166;4.760;2023-07-09T15:55:47;7.47;;;5.03;;